createdAt,value
2019-03-27T00:02:24.291Z,95.70
2019-03-27T00:04:52.815Z,95.80
2019-03-27T00:07:21.282Z,95.90
2019-03-27T00:09:49.795Z,95.80
2019-03-27T00:12:18.647Z,95.80
2019-03-27T00:14:47.291Z,95.90
2019-03-27T00:17:15.762Z,95.90
2019-03-27T00:19:44.080Z,96.00
2019-03-27T00:22:12.647Z,96.00
2019-03-27T00:24:41.805Z,95.90
2019-03-27T00:27:10.318Z,95.90
2019-03-27T00:29:38.983Z,95.80
2019-03-27T00:32:07.348Z,95.90
2019-03-27T00:34:35.997Z,95.90
2019-03-27T00:37:04.516Z,95.70
2019-03-27T00:39:33.006Z,95.70
2019-03-27T00:42:01.318Z,95.40
2019-03-27T00:44:29.596Z,95.30
2019-03-27T00:46:58.322Z,95.60
2019-03-27T00:49:27.068Z,95.70
2019-03-27T00:51:55.661Z,95.80
2019-03-27T00:54:24.227Z,95.80
2019-03-27T00:56:52.515Z,95.90
2019-03-27T00:59:20.814Z,95.80
2019-03-27T01:01:49.464Z,95.80
2019-03-27T01:04:17.923Z,95.70
2019-03-27T01:06:46.230Z,95.70
2019-03-27T01:09:14.723Z,95.70
2019-03-27T01:11:43.244Z,95.70
2019-03-27T01:14:11.637Z,95.80
2019-03-27T01:16:40.252Z,95.70
2019-03-27T01:19:08.934Z,95.50
2019-03-27T01:21:37.417Z,95.40
2019-03-27T01:24:06.021Z,95.30
2019-03-27T01:26:34.607Z,95.40
2019-03-27T01:29:03.065Z,95.50
2019-03-27T01:31:31.700Z,95.40
2019-03-27T01:34:00.103Z,95.60
2019-03-27T01:36:28.523Z,95.50
2019-03-27T01:38:57.066Z,95.50
2019-03-27T01:41:28.403Z,95.60
2019-03-27T01:43:56.720Z,95.70
2019-03-27T01:46:25.503Z,95.60
2019-03-27T01:48:54.080Z,95.60
2019-03-27T01:51:22.376Z,95.40
2019-03-27T01:53:50.670Z,95.50
2019-03-27T01:56:19.268Z,95.60
2019-03-27T01:58:47.685Z,95.50
2019-03-27T02:01:16.033Z,95.60
2019-03-27T02:03:44.374Z,95.60
2019-03-27T02:06:12.848Z,95.50
2019-03-27T02:08:41.420Z,95.30
2019-03-27T02:11:09.935Z,95.40
2019-03-27T02:13:38.396Z,95.40
2019-03-27T02:16:07.523Z,95.50
2019-03-27T02:18:38.496Z,95.40
2019-03-27T02:21:07.154Z,95.40
2019-03-27T02:23:35.548Z,95.50
2019-03-27T02:26:04.180Z,95.40
2019-03-27T02:28:32.817Z,95.50
2019-03-27T02:31:01.760Z,95.50
2019-03-27T02:33:30.475Z,95.60
2019-03-27T02:35:59.747Z,95.50
2019-03-27T02:38:28.194Z,95.80
2019-03-27T02:40:56.539Z,95.90
2019-03-27T02:43:24.917Z,95.90
2019-03-27T02:45:53.701Z,96.10
2019-03-27T02:48:22.577Z,96.10
2019-03-27T02:50:51.389Z,96.00
2019-03-27T02:53:19.817Z,96.00
2019-03-27T02:55:48.207Z,96.00
2019-03-27T02:58:18.537Z,96.00
2019-03-27T03:00:47.561Z,96.30
2019-03-27T03:03:16.143Z,96.20
2019-03-27T03:05:44.760Z,96.10
2019-03-27T03:08:13.456Z,95.80
2019-03-27T03:10:45.688Z,95.80
2019-03-27T03:13:12.102Z,95.70
2019-03-27T03:15:40.750Z,95.20
2019-03-27T03:18:09.519Z,95.60
2019-03-27T03:20:38.415Z,95.90
2019-03-27T03:23:06.908Z,95.90
2019-03-27T03:25:35.719Z,96.00
2019-03-27T03:28:04.197Z,96.00
2019-03-27T03:30:32.799Z,95.90
2019-03-27T03:33:01.321Z,95.90
2019-03-27T03:35:29.801Z,95.70
2019-03-27T03:37:58.526Z,95.70
2019-03-27T03:40:27.082Z,95.60
2019-03-27T03:42:55.647Z,95.80
2019-03-27T03:45:24.426Z,95.60
2019-03-27T03:47:52.851Z,95.50
2019-03-27T03:50:33.642Z,95.40
2019-03-27T03:53:02.149Z,95.30
2019-03-27T03:55:30.924Z,95.50
2019-03-27T03:57:59.437Z,95.80
2019-03-27T04:00:27.826Z,95.60
2019-03-27T04:02:56.424Z,95.80
2019-03-27T04:05:25.051Z,96.00
2019-03-27T04:07:53.699Z,95.90
2019-03-27T04:10:22.519Z,96.10
2019-03-27T04:12:51.213Z,95.90
2019-03-27T04:15:19.655Z,96.20
2019-03-27T04:17:48.059Z,96.30
2019-03-27T04:20:16.681Z,97.00
2019-03-27T04:22:45.616Z,97.20
2019-03-27T04:25:14.667Z,97.20
2019-03-27T04:27:43.140Z,97.20
2019-03-27T04:30:11.707Z,97.20
2019-03-27T04:32:40.757Z,97.10
2019-03-27T04:35:09.287Z,97.40
2019-03-27T04:37:37.861Z,97.90
2019-03-27T04:40:06.365Z,97.80
2019-03-27T04:42:34.764Z,98.10
2019-03-27T04:45:03.360Z,98.00
2019-03-27T04:47:32.746Z,97.90
2019-03-27T04:50:01.325Z,97.90
2019-03-27T04:52:29.656Z,97.80
2019-03-27T04:54:57.985Z,97.70
2019-03-27T04:57:29.879Z,97.80
2019-03-27T04:59:58.589Z,97.90
2019-03-27T05:02:26.934Z,97.60
2019-03-27T05:04:55.972Z,97.10
2019-03-27T05:07:25.519Z,96.40
2019-03-27T05:09:53.931Z,95.80
2019-03-27T05:12:22.404Z,94.20
2019-03-27T05:14:50.866Z,93.30
2019-03-27T05:17:19.365Z,92.70
2019-03-27T05:19:48.231Z,91.90
2019-03-27T05:22:25.956Z,91.90
2019-03-27T05:24:54.558Z,92.20
2019-03-27T05:27:22.907Z,92.10
2019-03-27T05:29:51.346Z,92.00
2019-03-27T05:32:19.881Z,91.50
2019-03-27T05:34:50.619Z,91.40
2019-03-27T05:37:18.914Z,91.60
2019-03-27T05:39:47.450Z,92.30
2019-03-27T05:42:15.809Z,92.60
2019-03-27T05:44:44.967Z,92.80
2019-03-27T05:47:14.509Z,91.00
2019-03-27T05:49:43.679Z,88.80
2019-03-27T05:52:24.999Z,83.90
2019-03-27T05:54:53.280Z,80.20
2019-03-27T05:57:21.522Z,77.10
2019-03-27T05:59:49.882Z,73.40
2019-03-27T06:02:18.236Z,69.30
2019-03-27T06:04:46.597Z,66.10
2019-03-27T06:07:14.944Z,62.50
2019-03-27T06:09:43.306Z,59.00
2019-03-27T06:12:11.635Z,56.70
2019-03-27T06:14:40.038Z,57.10
2019-03-27T06:17:08.344Z,54.40
2019-03-27T06:19:36.711Z,52.20
2019-03-27T06:22:05.132Z,50.20
2019-03-27T06:24:33.558Z,48.90
2019-03-27T06:27:01.930Z,48.00
2019-03-27T06:29:30.241Z,47.50
2019-03-27T06:32:00.244Z,49.40
2019-03-27T06:34:28.022Z,46.70
2019-03-27T06:36:57.096Z,46.60
2019-03-27T06:39:25.438Z,47.00
2019-03-27T06:41:53.709Z,46.40
2019-03-27T06:44:22.053Z,43.90
2019-03-27T06:46:50.341Z,41.70
2019-03-27T06:49:18.761Z,42.50
2019-03-27T06:51:52.084Z,46.40
2019-03-27T06:54:20.471Z,45.70
2019-03-27T06:56:49.974Z,45.50
2019-03-27T06:59:19.836Z,44.60
2019-03-27T07:01:48.214Z,46.70
2019-03-27T07:04:17.419Z,44.90
2019-03-27T07:06:48.031Z,46.20
2019-03-27T07:09:16.561Z,45.10
2019-03-27T07:11:45.075Z,44.90
2019-03-27T07:14:13.552Z,42.70
2019-03-27T07:16:41.844Z,38.80
2019-03-27T07:19:12.608Z,40.10
2019-03-27T07:21:40.994Z,44.70
2019-03-27T07:24:09.541Z,43.80
2019-03-27T07:26:38.661Z,41.10
2019-03-27T07:29:07.125Z,41.00
2019-03-27T07:31:35.503Z,36.90
2019-03-27T07:34:03.945Z,32.60
2019-03-27T07:36:32.377Z,31.00
2019-03-27T07:39:10.445Z,29.70
2019-03-27T07:41:30.479Z,29.30
2019-03-27T07:43:59.105Z,32.50
2019-03-27T07:46:29.155Z,36.00
2019-03-27T07:48:56.800Z,33.50
2019-03-27T07:51:25.482Z,36.60
2019-03-27T07:53:54.266Z,37.90
2019-03-27T07:56:22.797Z,40.30
2019-03-27T07:58:51.247Z,46.00
2019-03-27T08:01:20.041Z,44.30
2019-03-27T08:03:48.690Z,37.10
2019-03-27T08:06:17.204Z,33.90
2019-03-27T08:08:47.300Z,30.80
2019-03-27T08:11:15.260Z,28.70
2019-03-27T08:13:45.601Z,28.70
2019-03-27T08:16:13.062Z,30.00
2019-03-27T08:18:41.553Z,34.80
2019-03-27T08:21:11.653Z,35.90
2019-03-27T08:23:39.397Z,37.40
2019-03-27T08:26:07.711Z,41.90
2019-03-27T08:28:36.102Z,45.70
2019-03-27T08:31:04.505Z,46.20
2019-03-27T08:33:32.867Z,41.30
2019-03-27T08:36:01.425Z,34.20
2019-03-27T08:38:29.895Z,29.60
2019-03-27T08:40:58.185Z,30.60
2019-03-27T08:43:26.582Z,30.50
2019-03-27T08:45:55.038Z,25.70
2019-03-27T08:48:23.528Z,25.90
2019-03-27T08:50:52.193Z,28.80
2019-03-27T08:53:20.494Z,36.10
2019-03-27T08:55:50.561Z,35.60
2019-03-27T08:58:18.184Z,36.70
2019-03-27T09:00:49.808Z,37.70
2019-03-27T09:03:18.310Z,39.00
2019-03-27T09:05:46.806Z,39.20
2019-03-27T09:08:15.262Z,40.10
2019-03-27T09:10:43.618Z,43.40
2019-03-27T09:13:12.055Z,41.60
2019-03-27T09:15:40.415Z,34.90
2019-03-27T09:18:08.856Z,30.80
2019-03-27T09:20:37.260Z,23.10
2019-03-27T09:23:07.794Z,26.30
2019-03-27T09:25:36.271Z,25.60
2019-03-27T09:28:04.910Z,30.40
2019-03-27T09:30:33.213Z,31.50
2019-03-27T09:33:01.625Z,34.10
2019-03-27T09:35:31.734Z,35.20
2019-03-27T09:37:59.649Z,35.60
2019-03-27T09:40:31.515Z,35.50
2019-03-27T09:43:00.799Z,34.60
2019-03-27T09:45:31.157Z,38.90
2019-03-27T09:47:59.628Z,40.00
2019-03-27T09:50:27.988Z,32.00
2019-03-27T09:52:56.880Z,27.10
2019-03-27T09:55:25.212Z,24.90
2019-03-27T09:57:53.589Z,26.00
2019-03-27T10:00:47.905Z,30.00
2019-03-27T10:03:16.894Z,31.80
2019-03-27T10:05:45.492Z,35.20
2019-03-27T10:08:14.009Z,37.70
2019-03-27T10:10:42.424Z,35.10
2019-03-27T10:13:10.804Z,35.50
2019-03-27T10:15:39.153Z,34.10
2019-03-27T10:18:07.477Z,33.40
2019-03-27T10:20:35.919Z,35.90
2019-03-27T10:23:04.469Z,38.70
2019-03-27T10:25:33.067Z,42.50
2019-03-27T10:28:01.404Z,45.90
2019-03-27T10:30:30.005Z,40.30
2019-03-27T10:32:58.623Z,33.30
2019-03-27T10:35:26.992Z,29.30
2019-03-27T10:37:55.644Z,28.30
2019-03-27T10:40:24.112Z,24.80
2019-03-27T10:42:52.573Z,24.60
2019-03-27T10:45:21.020Z,23.60
2019-03-27T10:47:49.626Z,23.50
2019-03-27T10:50:18.316Z,24.00
2019-03-27T10:52:46.622Z,22.70
2019-03-27T10:55:14.956Z,23.80
2019-03-27T10:57:43.240Z,23.10
2019-03-27T11:00:12.581Z,23.50
2019-03-27T11:02:41.035Z,24.80
2019-03-27T11:05:09.421Z,25.30
2019-03-27T11:07:37.772Z,26.60
2019-03-27T11:10:07.866Z,27.90
2019-03-27T11:12:36.183Z,28.30
2019-03-27T11:15:06.587Z,28.00
2019-03-27T11:17:35.131Z,29.40
2019-03-27T11:20:04.036Z,30.40
2019-03-27T11:22:35.406Z,32.10
2019-03-27T11:25:04.975Z,32.20
2019-03-27T11:27:33.428Z,31.10
2019-03-27T11:30:02.767Z,33.40
2019-03-27T11:32:31.284Z,35.30
2019-03-27T11:34:59.607Z,34.40
2019-03-27T11:37:28.074Z,33.10
2019-03-27T11:39:56.534Z,28.10
2019-03-27T11:42:27.998Z,29.80
2019-03-27T11:44:56.764Z,32.40
2019-03-27T11:47:25.112Z,36.50
2019-03-27T11:49:53.452Z,41.00
2019-03-27T11:52:21.867Z,42.60
2019-03-27T11:54:50.258Z,44.40
2019-03-27T11:57:18.693Z,45.40
2019-03-27T11:59:53.716Z,45.90
2019-03-27T12:02:17.684Z,44.60
2019-03-27T12:04:46.189Z,40.60
2019-03-27T12:07:14.504Z,38.00
2019-03-27T12:09:43.029Z,36.30
2019-03-27T12:12:11.465Z,34.40
2019-03-27T12:14:39.761Z,32.80
2019-03-27T12:17:08.387Z,28.80
2019-03-27T12:19:38.041Z,29.80
2019-03-27T12:22:06.611Z,29.50
2019-03-27T12:24:34.883Z,31.10
2019-03-27T12:27:03.269Z,33.20
2019-03-27T12:29:31.594Z,35.70
2019-03-27T12:31:59.938Z,37.70
2019-03-27T12:34:29.995Z,38.70
2019-03-27T12:36:57.898Z,40.20
2019-03-27T12:39:26.226Z,42.10
2019-03-27T12:41:54.993Z,42.80
2019-03-27T12:44:23.426Z,42.60
2019-03-27T12:46:52.151Z,41.30
2019-03-27T12:49:22.249Z,42.30
2019-03-27T12:51:49.950Z,43.00
2019-03-27T12:54:18.248Z,44.40
2019-03-27T12:56:46.516Z,43.60
2019-03-27T12:59:14.927Z,43.20
2019-03-27T13:01:43.219Z,44.60
2019-03-27T13:04:11.507Z,45.50
2019-03-27T13:06:39.901Z,48.40
2019-03-27T13:09:08.322Z,48.40
2019-03-27T13:11:36.990Z,45.90
2019-03-27T13:14:05.409Z,43.70
2019-03-27T13:16:33.872Z,41.50
2019-03-27T13:19:02.630Z,43.90
2019-03-27T13:21:31.145Z,42.30
2019-03-27T13:23:59.461Z,41.20
2019-03-27T13:26:27.798Z,43.70
2019-03-27T13:28:56.109Z,44.30
2019-03-27T13:31:24.414Z,44.30
2019-03-27T13:33:52.758Z,45.80
2019-03-27T13:36:21.100Z,46.00
2019-03-27T13:38:49.395Z,46.70
2019-03-27T13:41:17.700Z,46.00
2019-03-27T13:43:45.973Z,46.40
2019-03-27T13:46:14.289Z,46.00
2019-03-27T13:48:42.654Z,45.30
2019-03-27T13:51:11.021Z,47.00
2019-03-27T13:53:39.387Z,45.70
2019-03-27T13:56:08.067Z,47.10
2019-03-27T13:58:36.536Z,46.30
2019-03-27T14:01:04.939Z,47.20
2019-03-27T14:03:33.494Z,45.50
2019-03-27T14:06:01.835Z,45.70
2019-03-27T14:08:30.499Z,44.80
2019-03-27T14:10:59.113Z,45.00
2019-03-27T14:13:27.529Z,45.00
2019-03-27T14:15:56.352Z,45.20
2019-03-27T14:18:24.802Z,45.00
2019-03-27T14:20:53.245Z,44.00
2019-03-27T14:23:21.579Z,44.70
2019-03-27T14:25:49.975Z,47.10
2019-03-27T14:28:18.576Z,45.50
2019-03-27T14:30:49.757Z,45.40
2019-03-27T14:33:18.378Z,44.80
2019-03-27T14:35:46.829Z,46.00
2019-03-27T14:38:15.203Z,45.50
2019-03-27T14:40:43.544Z,44.00
2019-03-27T14:43:11.941Z,43.10
2019-03-27T14:45:40.390Z,44.60
2019-03-27T14:48:09.044Z,44.80
2019-03-27T14:50:37.347Z,44.70
2019-03-27T14:53:06.862Z,43.30
2019-03-27T14:55:35.126Z,43.50
2019-03-27T14:58:03.511Z,44.00
2019-03-27T15:00:31.852Z,45.00
2019-03-27T15:03:00.221Z,43.70
2019-03-27T15:05:28.998Z,44.70
2019-03-27T15:07:57.358Z,44.80
2019-03-27T15:10:25.853Z,43.80
2019-03-27T15:12:54.502Z,43.70
2019-03-27T15:15:23.280Z,43.70
2019-03-27T15:17:51.930Z,44.30
2019-03-27T15:20:20.629Z,43.60
2019-03-27T15:22:49.009Z,44.60
2019-03-27T15:25:17.363Z,45.40
2019-03-27T15:27:45.738Z,44.60
2019-03-27T15:30:14.135Z,43.90
2019-03-27T15:32:42.687Z,43.70
2019-03-27T15:35:11.385Z,44.30
2019-03-27T15:37:40.906Z,43.70
2019-03-27T15:40:09.197Z,45.30
2019-03-27T15:42:38.571Z,44.70
2019-03-27T15:45:07.429Z,44.80
2019-03-27T15:47:36.740Z,44.80
2019-03-27T15:50:07.977Z,45.60
2019-03-27T15:52:37.188Z,47.30
2019-03-27T15:55:06.880Z,45.20
2019-03-27T15:57:35.472Z,46.80
2019-03-27T16:00:05.090Z,47.80
2019-03-27T16:02:33.471Z,46.90
2019-03-27T16:05:01.833Z,47.20
2019-03-27T16:07:31.482Z,47.40
2019-03-27T16:10:00.443Z,46.40
2019-03-27T16:12:29.533Z,48.40
2019-03-27T16:14:57.882Z,47.30
2019-03-27T16:17:26.471Z,47.70
2019-03-27T16:19:54.796Z,48.40
2019-03-27T16:22:23.328Z,48.30
2019-03-27T16:24:51.718Z,49.80
2019-03-27T16:27:20.115Z,50.80
2019-03-27T16:29:48.688Z,50.10
2019-03-27T16:32:17.176Z,51.90
2019-03-27T16:34:45.593Z,51.10
2019-03-27T16:37:14.009Z,50.70
2019-03-27T16:39:42.379Z,53.20
2019-03-27T16:42:10.697Z,53.60
2019-03-27T16:44:38.983Z,54.40
2019-03-27T16:47:07.262Z,54.40
2019-03-27T16:49:35.834Z,53.50
2019-03-27T16:52:04.128Z,54.30
2019-03-27T16:54:32.461Z,53.80
2019-03-27T16:57:01.782Z,55.60
2019-03-27T16:59:30.266Z,56.20
2019-03-27T17:01:58.741Z,57.10
2019-03-27T17:04:27.063Z,57.10
2019-03-27T17:06:55.434Z,57.20
2019-03-27T17:09:24.097Z,56.80
2019-03-27T17:11:52.529Z,57.50
2019-03-27T17:14:20.977Z,59.00
2019-03-27T17:16:49.318Z,59.60
2019-03-27T17:19:17.696Z,59.20
2019-03-27T17:21:45.975Z,59.30
2019-03-27T17:24:14.370Z,59.80
2019-03-27T17:26:42.771Z,61.30
2019-03-27T17:29:11.051Z,62.20
2019-03-27T17:31:39.434Z,61.40
2019-03-27T17:34:07.884Z,62.20
2019-03-27T17:36:36.176Z,61.40
2019-03-27T17:39:08.832Z,62.00
2019-03-27T17:41:37.667Z,62.80
2019-03-27T17:44:06.120Z,62.40
2019-03-27T17:46:34.614Z,63.10
2019-03-27T17:49:03.097Z,62.80
2019-03-27T17:51:31.385Z,63.50
2019-03-27T17:53:59.745Z,65.00
2019-03-27T17:56:28.238Z,65.80
2019-03-27T17:58:57.473Z,66.40
2019-03-27T18:01:25.854Z,65.20
2019-03-27T18:03:54.233Z,64.80
2019-03-27T18:06:22.650Z,63.80
2019-03-27T18:08:51.055Z,64.10
2019-03-27T18:11:19.572Z,64.00
2019-03-27T18:13:47.908Z,63.40
2019-03-27T18:16:17.305Z,63.80
2019-03-27T18:18:45.885Z,63.80
2019-03-27T18:21:14.232Z,64.70
2019-03-27T18:23:46.427Z,66.00
2019-03-27T18:26:12.781Z,65.60
2019-03-27T18:28:41.159Z,67.50
2019-03-27T18:31:09.475Z,68.20
2019-03-27T18:33:39.055Z,68.30
2019-03-27T18:36:09.364Z,68.30
2019-03-27T18:38:37.927Z,69.80
2019-03-27T18:41:06.371Z,70.30
2019-03-27T18:43:34.891Z,72.60
2019-03-27T18:46:03.216Z,72.50
2019-03-27T18:48:31.561Z,73.50
2019-03-27T18:51:00.026Z,73.90
2019-03-27T18:53:28.682Z,73.90
2019-03-27T18:55:57.065Z,74.60
2019-03-27T18:58:25.760Z,74.40
2019-03-27T19:00:55.037Z,73.90
2019-03-27T19:03:23.398Z,74.50
2019-03-27T19:05:51.875Z,73.60
2019-03-27T19:08:20.339Z,74.50
2019-03-27T19:10:48.692Z,73.50
2019-03-27T19:13:17.121Z,73.70
2019-03-27T19:16:08.996Z,73.40
2019-03-27T19:19:05.028Z,74.40
2019-03-27T19:21:33.883Z,74.70
2019-03-27T19:24:13.307Z,73.80
2019-03-27T19:26:32.663Z,74.90
2019-03-27T19:29:00.995Z,74.30
2019-03-27T19:31:29.262Z,73.60
2019-03-27T19:33:57.625Z,73.10
2019-03-27T19:36:26.035Z,72.60
2019-03-27T19:38:54.459Z,73.40
2019-03-27T19:41:24.668Z,73.20
2019-03-27T19:43:53.714Z,71.40
2019-03-27T19:46:22.084Z,70.90
2019-03-27T19:48:50.990Z,70.20
2019-03-27T19:51:21.817Z,70.40
2019-03-27T19:53:53.403Z,70.70
2019-03-27T19:56:25.326Z,71.20
2019-03-27T19:58:54.044Z,72.00
2019-03-27T20:01:23.345Z,69.90
2019-03-27T20:03:51.708Z,69.10
2019-03-27T20:06:20.058Z,68.50
2019-03-27T20:08:48.328Z,67.70
2019-03-27T20:11:20.917Z,67.90
2019-03-27T20:13:49.217Z,69.80
2019-03-27T20:16:17.825Z,68.20
2019-03-27T20:18:49.034Z,68.40
2019-03-27T20:21:17.323Z,68.70
2019-03-27T20:23:49.068Z,66.90
2019-03-27T20:26:17.352Z,67.00
2019-03-27T20:29:11.100Z,67.40
2019-03-27T20:31:39.470Z,64.70
2019-03-27T20:34:07.773Z,65.70
2019-03-27T20:36:39.016Z,65.10
2019-03-27T20:39:08.368Z,64.10
2019-03-27T20:41:36.653Z,65.20
2019-03-27T20:44:04.980Z,64.90
2019-03-27T20:46:33.420Z,64.90
2019-03-27T20:49:09.170Z,65.30
2019-03-27T20:51:38.351Z,65.50
2019-03-27T20:54:07.049Z,65.60
2019-03-27T20:56:36.425Z,64.20
2019-03-27T20:59:04.826Z,65.30
2019-03-27T21:01:36.050Z,66.80
2019-03-27T21:04:16.292Z,66.90
2019-03-27T21:06:44.592Z,67.60
2019-03-27T21:09:14.447Z,66.80
2019-03-27T21:11:43.122Z,66.90
2019-03-27T21:14:11.522Z,68.60
2019-03-27T21:16:39.869Z,69.20
2019-03-27T21:19:08.361Z,70.00
2019-03-27T21:21:36.709Z,72.50
2019-03-27T21:24:05.039Z,71.10
2019-03-27T21:26:33.453Z,70.30
2019-03-27T21:29:01.737Z,71.60
2019-03-27T21:31:30.183Z,70.60
2019-03-27T21:33:59.132Z,70.80
2019-03-27T21:36:27.579Z,71.10
2019-03-27T21:38:55.970Z,71.10
2019-03-27T21:41:24.290Z,71.40
2019-03-27T21:43:53.509Z,71.80
2019-03-27T21:46:21.838Z,72.50
2019-03-27T21:48:50.223Z,72.80
2019-03-27T21:51:18.640Z,71.50
2019-03-27T21:53:50.962Z,71.90
2019-03-27T21:56:19.080Z,72.00
2019-03-27T21:58:47.540Z,72.20
2019-03-27T22:01:17.176Z,72.00
2019-03-27T22:03:46.319Z,73.10
2019-03-27T22:06:14.591Z,73.20
2019-03-27T22:08:43.081Z,73.70
2019-03-27T22:11:13.313Z,75.60
2019-03-27T22:13:41.747Z,75.10
2019-03-27T22:16:10.157Z,74.70
2019-03-27T22:18:38.471Z,75.20
2019-03-27T22:21:06.893Z,76.80
2019-03-27T22:23:35.244Z,79.60
2019-03-27T22:26:03.689Z,76.10
2019-03-27T22:28:32.063Z,74.70
2019-03-27T22:31:00.511Z,75.00
2019-03-27T22:33:29.185Z,72.00
2019-03-27T22:35:57.737Z,72.40
2019-03-27T22:38:26.162Z,72.50
2019-03-27T22:40:54.797Z,72.30
2019-03-27T22:43:23.248Z,73.80
2019-03-27T22:45:51.622Z,73.10
2019-03-27T22:48:20.071Z,77.10
2019-03-27T22:50:48.733Z,78.60
2019-03-27T22:53:17.169Z,78.60
2019-03-27T22:55:50.118Z,77.00
2019-03-27T22:58:15.617Z,76.80
2019-03-27T23:00:45.770Z,76.20
2019-03-27T23:03:18.434Z,77.00
2019-03-27T23:05:45.381Z,78.20
2019-03-27T23:08:13.871Z,78.70
2019-03-27T23:10:42.452Z,78.40
2019-03-27T23:13:10.895Z,77.00
2019-03-27T23:15:39.354Z,78.60
2019-03-27T23:18:07.774Z,77.70
2019-03-27T23:20:36.165Z,78.80
2019-03-27T23:23:04.675Z,77.80
2019-03-27T23:25:32.960Z,78.20
2019-03-27T23:28:01.264Z,78.60
2019-03-27T23:30:29.553Z,80.40
2019-03-27T23:32:57.871Z,82.40
2019-03-27T23:35:26.185Z,81.90
2019-03-27T23:37:54.662Z,81.10
2019-03-27T23:40:23.147Z,81.30
2019-03-27T23:42:51.423Z,81.10
2019-03-27T23:45:20.133Z,81.80
2019-03-27T23:47:48.893Z,81.50
2019-03-27T23:50:17.449Z,81.30
2019-03-27T23:52:45.831Z,80.70
2019-03-27T23:55:16.914Z,81.20
2019-03-27T23:57:45.196Z,81.10
